sensor_id;sensor_type;location;lat;lon;timestamp;P1;durP1;ratioP1;P2;durP2;ratioP2
70169;SDS011;57543;45.442;9.212;2023-06-14T00:01:14;26.23;;;16.27;;
70169;SDS011;57543;45.442;9.212;2023-06-14T00:04:18;25.57;;;16.47;;
70169;SDS011;57543;45.442;9.212;2023-06-14T00:07:33;22.55;;;14.30;;
70169;SDS011;57543;45.442;9.212;2023-06-14T00:10:38;19.20;;;12.85;;
70169;SDS011;57543;45.442;9.212;2023-06-14T00:13:44;17.75;;;12.15;;
70169;SDS011;57543;45.442;9.212;2023-06-14T00:16:48;18.52;;;12.88;;
70169;SDS011;57543;45.442;9.212;2023-06-14T00:19:51;16.90;;;11.40;;
70169;SDS011;57543;45.442;9.212;2023-06-14T00:22:56;17.30;;;11.77;;
70169;SDS011;57543;45.442;9.212;2023-06-14T00:25:59;20.92;;;12.50;;
70169;SDS011;57543;45.442;9.212;2023-06-14T00:29:03;22.77;;;12.98;;
70169;SDS011;57543;45.442;9.212;2023-06-14T00:32:07;23.75;;;14.27;;
70169;SDS011;57543;45.442;9.212;2023-06-14T00:35:11;21.47;;;12.70;;
70169;SDS011;57543;45.442;9.212;2023-06-14T00:38:15;18.30;;;10.45;;
70169;SDS011;57543;45.442;9.212;2023-06-14T00:41:18;17.55;;;10.82;;
70169;SDS011;57543;45.442;9.212;2023-06-14T00:44:21;17.85;;;11.38;;
70169;SDS011;57543;45.442;9.212;2023-06-14T00:47:24;15.52;;;9.55;;
70169;SDS011;57543;45.442;9.212;2023-06-14T00:50:30;19.03;;;12.00;;
70169;SDS011;57543;45.442;9.212;2023-06-14T00:53:35;17.55;;;11.18;;
70169;SDS011;57543;45.442;9.212;2023-06-14T00:56:39;17.55;;;10.55;;
70169;SDS011;57543;45.442;9.212;2023-06-14T00:59:44;17.20;;;10.80;;
70169;SDS011;57543;45.442;9.212;2023-06-14T01:02:50;19.60;;;10.27;;
70169;SDS011;57543;45.442;9.212;2023-06-14T01:05:58;16.60;;;10.57;;
70169;SDS011;57543;45.442;9.212;2023-06-14T01:12:58;15.90;;;10.18;;
70169;SDS011;57543;45.442;9.212;2023-06-14T01:16:10;14.52;;;9.50;;
70169;SDS011;57543;45.442;9.212;2023-06-14T01:19:15;14.15;;;8.75;;
70169;SDS011;57543;45.442;9.212;2023-06-14T01:22:19;12.70;;;8.10;;
70169;SDS011;57543;45.442;9.212;2023-06-14T01:25:23;11.75;;;7.53;;
70169;SDS011;57543;45.442;9.212;2023-06-14T01:28:27;14.70;;;9.15;;
70169;SDS011;57543;45.442;9.212;2023-06-14T01:31:35;13.65;;;8.80;;
70169;SDS011;57543;45.442;9.212;2023-06-14T01:34:44;13.77;;;9.32;;
70169;SDS011;57543;45.442;9.212;2023-06-14T01:37:49;13.57;;;8.27;;
70169;SDS011;57543;45.442;9.212;2023-06-14T01:40:55;15.85;;;9.77;;
70169;SDS011;57543;45.442;9.212;2023-06-14T01:44:02;14.00;;;8.35;;
70169;SDS011;57543;45.442;9.212;2023-06-14T01:47:10;11.98;;;7.82;;
70169;SDS011;57543;45.442;9.212;2023-06-14T01:50:15;13.63;;;8.38;;
70169;SDS011;57543;45.442;9.212;2023-06-14T01:53:18;12.37;;;7.60;;
70169;SDS011;57543;45.442;9.212;2023-06-14T01:56:22;11.55;;;7.05;;
70169;SDS011;57543;45.442;9.212;2023-06-14T01:59:27;11.40;;;6.97;;
70169;SDS011;57543;45.442;9.212;2023-06-14T02:02:30;10.43;;;6.07;;
70169;SDS011;57543;45.442;9.212;2023-06-14T02:05:34;9.20;;;5.65;;
70169;SDS011;57543;45.442;9.212;2023-06-14T02:08:37;7.73;;;4.97;;
70169;SDS011;57543;45.442;9.212;2023-06-14T02:11:41;7.78;;;4.47;;
70169;SDS011;57543;45.442;9.212;2023-06-14T02:14:44;7.43;;;4.22;;
70169;SDS011;57543;45.442;9.212;2023-06-14T02:17:48;7.57;;;4.47;;
70169;SDS011;57543;45.442;9.212;2023-06-14T02:20:55;7.70;;;4.55;;
70169;SDS011;57543;45.442;9.212;2023-06-14T02:23:58;8.47;;;4.17;;
70169;SDS011;57543;45.442;9.212;2023-06-14T02:27:05;5.90;;;3.72;;
70169;SDS011;57543;45.442;9.212;2023-06-14T02:30:12;7.07;;;4.32;;
70169;SDS011;57543;45.442;9.212;2023-06-14T02:33:16;6.68;;;4.00;;
70169;SDS011;57543;45.442;9.212;2023-06-14T02:36:20;5.88;;;3.83;;
70169;SDS011;57543;45.442;9.212;2023-06-14T02:39:23;6.23;;;3.60;;
70169;SDS011;57543;45.442;9.212;2023-06-14T02:42:27;5.95;;;3.40;;
70169;SDS011;57543;45.442;9.212;2023-06-14T02:45:31;5.90;;;3.63;;
70169;SDS011;57543;45.442;9.212;2023-06-14T02:48:34;5.95;;;3.58;;
70169;SDS011;57543;45.442;9.212;2023-06-14T02:51:38;6.03;;;3.20;;
70169;SDS011;57543;45.442;9.212;2023-06-14T02:54:41;6.30;;;3.77;;
70169;SDS011;57543;45.442;9.212;2023-06-14T02:57:46;5.32;;;3.45;;
70169;SDS011;57543;45.442;9.212;2023-06-14T03:00:51;6.00;;;3.40;;
70169;SDS011;57543;45.442;9.212;2023-06-14T03:03:56;6.30;;;3.50;;
70169;SDS011;57543;45.442;9.212;2023-06-14T03:07:00;6.80;;;3.33;;
70169;SDS011;57543;45.442;9.212;2023-06-14T03:10:09;5.90;;;3.33;;
70169;SDS011;57543;45.442;9.212;2023-06-14T03:13:15;5.35;;;3.63;;
70169;SDS011;57543;45.442;9.212;2023-06-14T03:16:24;5.60;;;3.50;;
70169;SDS011;57543;45.442;9.212;2023-06-14T03:19:28;7.38;;;3.97;;
70169;SDS011;57543;45.442;9.212;2023-06-14T03:22:32;6.97;;;4.30;;
70169;SDS011;57543;45.442;9.212;2023-06-14T03:25:38;7.70;;;4.40;;
70169;SDS011;57543;45.442;9.212;2023-06-14T03:28:46;6.57;;;3.70;;
70169;SDS011;57543;45.442;9.212;2023-06-14T03:31:58;6.57;;;4.05;;
70169;SDS011;57543;45.442;9.212;2023-06-14T03:35:10;6.35;;;3.80;;
70169;SDS011;57543;45.442;9.212;2023-06-14T03:38:20;6.65;;;4.25;;
70169;SDS011;57543;45.442;9.212;2023-06-14T03:41:24;5.80;;;3.57;;
70169;SDS011;57543;45.442;9.212;2023-06-14T03:44:28;7.15;;;3.63;;
70169;SDS011;57543;45.442;9.212;2023-06-14T03:47:34;7.65;;;3.63;;
70169;SDS011;57543;45.442;9.212;2023-06-14T03:50:38;5.90;;;3.40;;
70169;SDS011;57543;45.442;9.212;2023-06-14T03:53:43;6.18;;;3.63;;
70169;SDS011;57543;45.442;9.212;2023-06-14T03:56:47;6.20;;;3.37;;
70169;SDS011;57543;45.442;9.212;2023-06-14T03:59:51;7.22;;;3.50;;
70169;SDS011;57543;45.442;9.212;2023-06-14T04:02:55;5.88;;;3.45;;
70169;SDS011;57543;45.442;9.212;2023-06-14T04:05:59;6.47;;;3.30;;
70169;SDS011;57543;45.442;9.212;2023-06-14T04:09:03;6.95;;;3.47;;
70169;SDS011;57543;45.442;9.212;2023-06-14T04:12:07;6.53;;;3.63;;
70169;SDS011;57543;45.442;9.212;2023-06-14T04:15:17;5.88;;;3.00;;
70169;SDS011;57543;45.442;9.212;2023-06-14T04:18:21;7.22;;;3.38;;
70169;SDS011;57543;45.442;9.212;2023-06-14T04:21:25;5.28;;;3.13;;
70169;SDS011;57543;45.442;9.212;2023-06-14T04:24:32;5.40;;;3.50;;
70169;SDS011;57543;45.442;9.212;2023-06-14T04:27:37;6.77;;;3.53;;
70169;SDS011;57543;45.442;9.212;2023-06-14T04:30:42;6.07;;;3.30;;
70169;SDS011;57543;45.442;9.212;2023-06-14T04:33:47;5.90;;;3.55;;
70169;SDS011;57543;45.442;9.212;2023-06-14T04:36:57;6.38;;;3.60;;
70169;SDS011;57543;45.442;9.212;2023-06-14T04:40:08;6.30;;;3.22;;
70169;SDS011;57543;45.442;9.212;2023-06-14T04:43:14;6.60;;;2.80;;
70169;SDS011;57543;45.442;9.212;2023-06-14T04:46:20;5.18;;;3.20;;
70169;SDS011;57543;45.442;9.212;2023-06-14T04:49:24;6.05;;;3.28;;
70169;SDS011;57543;45.442;9.212;2023-06-14T04:52:30;8.70;;;3.40;;
70169;SDS011;57543;45.442;9.212;2023-06-14T04:55:35;5.55;;;3.10;;
70169;SDS011;57543;45.442;9.212;2023-06-14T04:58:40;5.77;;;3.27;;
70169;SDS011;57543;45.442;9.212;2023-06-14T05:01:44;6.07;;;3.05;;
70169;SDS011;57543;45.442;9.212;2023-06-14T05:04:52;5.80;;;3.45;;
70169;SDS011;57543;45.442;9.212;2023-06-14T05:07:56;5.50;;;3.13;;
70169;SDS011;57543;45.442;9.212;2023-06-14T05:10:59;4.70;;;2.63;;
70169;SDS011;57543;45.442;9.212;2023-06-14T05:14:03;4.80;;;2.83;;
70169;SDS011;57543;45.442;9.212;2023-06-14T05:17:07;5.75;;;3.00;;
70169;SDS011;57543;45.442;9.212;2023-06-14T05:20:11;5.55;;;3.13;;
70169;SDS011;57543;45.442;9.212;2023-06-14T05:23:16;5.03;;;2.67;;
70169;SDS011;57543;45.442;9.212;2023-06-14T05:26:20;5.50;;;3.00;;
70169;SDS011;57543;45.442;9.212;2023-06-14T05:29:24;5.97;;;3.37;;
70169;SDS011;57543;45.442;9.212;2023-06-14T05:32:28;6.45;;;3.08;;
70169;SDS011;57543;45.442;9.212;2023-06-14T05:35:32;4.97;;;2.90;;
70169;SDS011;57543;45.442;9.212;2023-06-14T05:38:36;4.97;;;3.00;;
70169;SDS011;57543;45.442;9.212;2023-06-14T05:41:39;6.45;;;3.45;;
70169;SDS011;57543;45.442;9.212;2023-06-14T05:44:43;4.97;;;2.90;;
70169;SDS011;57543;45.442;9.212;2023-06-14T05:47:46;5.07;;;3.00;;
70169;SDS011;57543;45.442;9.212;2023-06-14T05:50:50;4.63;;;2.88;;
70169;SDS011;57543;45.442;9.212;2023-06-14T05:53:54;5.40;;;2.92;;
70169;SDS011;57543;45.442;9.212;2023-06-14T05:56:58;5.63;;;3.00;;
70169;SDS011;57543;45.442;9.212;2023-06-14T06:00:05;5.80;;;2.93;;
70169;SDS011;57543;45.442;9.212;2023-06-14T06:03:17;5.13;;;3.35;;
70169;SDS011;57543;45.442;9.212;2023-06-14T06:06:21;5.55;;;2.88;;
70169;SDS011;57543;45.442;9.212;2023-06-14T06:09:24;6.07;;;3.60;;
70169;SDS011;57543;45.442;9.212;2023-06-14T06:12:28;7.68;;;3.67;;
70169;SDS011;57543;45.442;9.212;2023-06-14T06:15:32;7.43;;;3.80;;
70169;SDS011;57543;45.442;9.212;2023-06-14T06:18:35;8.30;;;3.85;;
70169;SDS011;57543;45.442;9.212;2023-06-14T06:21:39;5.55;;;3.50;;
70169;SDS011;57543;45.442;9.212;2023-06-14T06:24:44;7.15;;;3.83;;
70169;SDS011;57543;45.442;9.212;2023-06-14T06:27:48;6.00;;;3.40;;
70169;SDS011;57543;45.442;9.212;2023-06-14T06:30:51;8.30;;;3.57;;
70169;SDS011;57543;45.442;9.212;2023-06-14T06:33:55;7.20;;;3.95;;
70169;SDS011;57543;45.442;9.212;2023-06-14T06:36:59;8.13;;;4.20;;
70169;SDS011;57543;45.442;9.212;2023-06-14T06:40:04;9.30;;;4.35;;
70169;SDS011;57543;45.442;9.212;2023-06-14T06:43:09;7.85;;;4.32;;
70169;SDS011;57543;45.442;9.212;2023-06-14T06:46:20;6.90;;;4.13;;
70169;SDS011;57543;45.442;9.212;2023-06-14T06:49:24;7.53;;;3.30;;
70169;SDS011;57543;45.442;9.212;2023-06-14T06:52:28;6.63;;;3.50;;
70169;SDS011;57543;45.442;9.212;2023-06-14T06:55:32;9.10;;;4.57;;
70169;SDS011;57543;45.442;9.212;2023-06-14T06:58:36;7.65;;;3.92;;
70169;SDS011;57543;45.442;9.212;2023-06-14T07:01:39;7.40;;;3.97;;
70169;SDS011;57543;45.442;9.212;2023-06-14T07:04:43;8.55;;;4.63;;
70169;SDS011;57543;45.442;9.212;2023-06-14T07:07:46;8.85;;;5.65;;
70169;SDS011;57543;45.442;9.212;2023-06-14T07:10:50;9.75;;;4.22;;
70169;SDS011;57543;45.442;9.212;2023-06-14T07:13:53;7.28;;;4.40;;
70169;SDS011;57543;45.442;9.212;2023-06-14T07:16:56;6.67;;;4.23;;
70169;SDS011;57543;45.442;9.212;2023-06-14T07:20:01;6.95;;;4.30;;
70169;SDS011;57543;45.442;9.212;2023-06-14T07:23:27;7.82;;;4.75;;
70169;SDS011;57543;45.442;9.212;2023-06-14T07:26:31;7.30;;;4.32;;
70169;SDS011;57543;45.442;9.212;2023-06-14T07:29:35;8.77;;;4.50;;
70169;SDS011;57543;45.442;9.212;2023-06-14T07:32:39;7.60;;;4.87;;
70169;SDS011;57543;45.442;9.212;2023-06-14T07:35:43;7.78;;;4.10;;
70169;SDS011;57543;45.442;9.212;2023-06-14T07:38:46;8.32;;;5.10;;
70169;SDS011;57543;45.442;9.212;2023-06-14T07:41:50;9.13;;;4.50;;
70169;SDS011;57543;45.442;9.212;2023-06-14T07:44:53;7.28;;;4.60;;
70169;SDS011;57543;45.442;9.212;2023-06-14T07:47:57;9.03;;;4.80;;
70169;SDS011;57543;45.442;9.212;2023-06-14T07:51:01;8.93;;;4.70;;
70169;SDS011;57543;45.442;9.212;2023-06-14T07:54:05;9.00;;;5.40;;
70169;SDS011;57543;45.442;9.212;2023-06-14T07:57:10;7.63;;;4.38;;
70169;SDS011;57543;45.442;9.212;2023-06-14T08:00:14;7.90;;;4.97;;
70169;SDS011;57543;45.442;9.212;2023-06-14T08:03:18;11.13;;;5.30;;
70169;SDS011;57543;45.442;9.212;2023-06-14T08:06:22;9.48;;;5.28;;
70169;SDS011;57543;45.442;9.212;2023-06-14T08:09:26;8.10;;;4.53;;
70169;SDS011;57543;45.442;9.212;2023-06-14T08:12:31;10.65;;;6.30;;
70169;SDS011;57543;45.442;9.212;2023-06-14T08:15:34;10.48;;;6.47;;
70169;SDS011;57543;45.442;9.212;2023-06-14T08:18:38;12.87;;;6.23;;
70169;SDS011;57543;45.442;9.212;2023-06-14T08:21:42;9.98;;;5.85;;
70169;SDS011;57543;45.442;9.212;2023-06-14T08:24:46;9.30;;;5.40;;
70169;SDS011;57543;45.442;9.212;2023-06-14T08:27:50;11.20;;;6.57;;
70169;SDS011;57543;45.442;9.212;2023-06-14T08:30:54;11.68;;;5.53;;
70169;SDS011;57543;45.442;9.212;2023-06-14T08:33:58;9.90;;;4.90;;
70169;SDS011;57543;45.442;9.212;2023-06-14T08:37:02;9.40;;;4.95;;
70169;SDS011;57543;45.442;9.212;2023-06-14T08:40:06;8.32;;;4.82;;
70169;SDS011;57543;45.442;9.212;2023-06-14T08:43:20;9.82;;;5.80;;
70169;SDS011;57543;45.442;9.212;2023-06-14T08:46:25;11.18;;;5.88;;
70169;SDS011;57543;45.442;9.212;2023-06-14T08:49:31;10.17;;;5.77;;
70169;SDS011;57543;45.442;9.212;2023-06-14T08:52:36;9.27;;;5.70;;
70169;SDS011;57543;45.442;9.212;2023-06-14T08:55:49;13.93;;;7.85;;
70169;SDS011;57543;45.442;9.212;2023-06-14T08:58:53;11.63;;;7.50;;
70169;SDS011;57543;45.442;9.212;2023-06-14T09:01:57;12.30;;;7.35;;
70169;SDS011;57543;45.442;9.212;2023-06-14T09:05:03;12.13;;;7.60;;
70169;SDS011;57543;45.442;9.212;2023-06-14T09:08:07;15.32;;;8.10;;
70169;SDS011;57543;45.442;9.212;2023-06-14T09:11:12;12.65;;;7.28;;
70169;SDS011;57543;45.442;9.212;2023-06-14T09:14:19;12.82;;;7.45;;
70169;SDS011;57543;45.442;9.212;2023-06-14T09:17:24;12.52;;;6.93;;
70169;SDS011;57543;45.442;9.212;2023-06-14T09:20:29;9.90;;;6.10;;
70169;SDS011;57543;45.442;9.212;2023-06-14T09:23:36;14.93;;;7.70;;
70169;SDS011;57543;45.442;9.212;2023-06-14T09:26:41;11.35;;;7.25;;
70169;SDS011;57543;45.442;9.212;2023-06-14T09:29:45;15.73;;;9.05;;
70169;SDS011;57543;45.442;9.212;2023-06-14T09:32:48;12.70;;;7.63;;
70169;SDS011;57543;45.442;9.212;2023-06-14T09:35:51;14.93;;;7.57;;
70169;SDS011;57543;45.442;9.212;2023-06-14T09:38:59;12.27;;;7.38;;
70169;SDS011;57543;45.442;9.212;2023-06-14T09:42:17;11.57;;;7.07;;
70169;SDS011;57543;45.442;9.212;2023-06-14T09:45:25;12.02;;;7.13;;
70169;SDS011;57543;45.442;9.212;2023-06-14T09:48:32;10.20;;;6.45;;
70169;SDS011;57543;45.442;9.212;2023-06-14T09:51:36;11.60;;;6.90;;
70169;SDS011;57543;45.442;9.212;2023-06-14T09:54:47;10.07;;;5.80;;
70169;SDS011;57543;45.442;9.212;2023-06-14T09:57:52;10.40;;;7.25;;
70169;SDS011;57543;45.442;9.212;2023-06-14T10:00:57;10.05;;;5.90;;
70169;SDS011;57543;45.442;9.212;2023-06-14T10:04:03;7.90;;;5.18;;
70169;SDS011;57543;45.442;9.212;2023-06-14T10:07:09;11.30;;;7.07;;
70169;SDS011;57543;45.442;9.212;2023-06-14T10:10:14;13.15;;;7.03;;
70169;SDS011;57543;45.442;9.212;2023-06-14T10:13:18;12.60;;;6.30;;
70169;SDS011;57543;45.442;9.212;2023-06-14T10:17:23;12.50;;;6.60;;
70169;SDS011;57543;45.442;9.212;2023-06-14T10:23:18;12.30;;;7.83;;
70169;SDS011;57543;45.442;9.212;2023-06-14T10:26:25;10.98;;;6.97;;
70169;SDS011;57543;45.442;9.212;2023-06-14T10:29:29;12.00;;;6.93;;
70169;SDS011;57543;45.442;9.212;2023-06-14T10:32:35;14.00;;;8.02;;
70169;SDS011;57543;45.442;9.212;2023-06-14T10:36:29;9.93;;;6.88;;
70169;SDS011;57543;45.442;9.212;2023-06-14T10:39:39;12.73;;;7.77;;
70169;SDS011;57543;45.442;9.212;2023-06-14T10:42:53;12.32;;;8.30;;
70169;SDS011;57543;45.442;9.212;2023-06-14T10:46:15;9.88;;;6.75;;
70169;SDS011;57543;45.442;9.212;2023-06-14T10:52:58;12.40;;;8.70;;
70169;SDS011;57543;45.442;9.212;2023-06-14T10:56:06;10.53;;;7.03;;
70169;SDS011;57543;45.442;9.212;2023-06-14T10:59:10;13.10;;;8.95;;
70169;SDS011;57543;45.442;9.212;2023-06-14T11:05:24;14.10;;;9.23;;
70169;SDS011;57543;45.442;9.212;2023-06-14T11:08:38;12.52;;;8.80;;
70169;SDS011;57543;45.442;9.212;2023-06-14T11:11:54;13.83;;;9.33;;
70169;SDS011;57543;45.442;9.212;2023-06-14T11:14:59;13.10;;;8.27;;
70169;SDS011;57543;45.442;9.212;2023-06-14T11:18:04;14.55;;;8.55;;
70169;SDS011;57543;45.442;9.212;2023-06-14T11:21:09;13.15;;;8.20;;
70169;SDS011;57543;45.442;9.212;2023-06-14T11:24:13;10.52;;;6.78;;
70169;SDS011;57543;45.442;9.212;2023-06-14T11:27:16;11.80;;;7.90;;
70169;SDS011;57543;45.442;9.212;2023-06-14T11:30:19;13.52;;;7.75;;
70169;SDS011;57543;45.442;9.212;2023-06-14T11:33:23;11.45;;;6.95;;
70169;SDS011;57543;45.442;9.212;2023-06-14T11:36:27;11.43;;;7.30;;
70169;SDS011;57543;45.442;9.212;2023-06-14T11:39:34;8.68;;;5.40;;
70169;SDS011;57543;45.442;9.212;2023-06-14T11:42:40;8.97;;;6.00;;
70169;SDS011;57543;45.442;9.212;2023-06-14T11:45:47;11.27;;;6.43;;
70169;SDS011;57543;45.442;9.212;2023-06-14T11:49:11;10.02;;;6.78;;
70169;SDS011;57543;45.442;9.212;2023-06-14T11:52:16;9.82;;;6.65;;
70169;SDS011;57543;45.442;9.212;2023-06-14T11:55:20;9.77;;;6.78;;
70169;SDS011;57543;45.442;9.212;2023-06-14T11:58:25;8.93;;;6.13;;
70169;SDS011;57543;45.442;9.212;2023-06-14T12:01:30;10.90;;;6.68;;
70169;SDS011;57543;45.442;9.212;2023-06-14T12:04:35;10.07;;;6.78;;
70169;SDS011;57543;45.442;9.212;2023-06-14T12:07:39;12.00;;;5.80;;
70169;SDS011;57543;45.442;9.212;2023-06-14T12:10:45;9.35;;;6.18;;
70169;SDS011;57543;45.442;9.212;2023-06-14T12:13:49;8.93;;;5.30;;
70169;SDS011;57543;45.442;9.212;2023-06-14T12:17:03;9.63;;;6.20;;
70169;SDS011;57543;45.442;9.212;2023-06-14T12:20:13;8.05;;;5.00;;
70169;SDS011;57543;45.442;9.212;2023-06-14T12:23:17;10.10;;;6.38;;
70169;SDS011;57543;45.442;9.212;2023-06-14T12:26:20;9.02;;;5.40;;
70169;SDS011;57543;45.442;9.212;2023-06-14T12:29:24;9.67;;;6.30;;
70169;SDS011;57543;45.442;9.212;2023-06-14T12:32:28;7.88;;;4.97;;
70169;SDS011;57543;45.442;9.212;2023-06-14T12:35:33;6.28;;;4.10;;
70169;SDS011;57543;45.442;9.212;2023-06-14T12:38:37;10.85;;;6.32;;
70169;SDS011;57543;45.442;9.212;2023-06-14T12:41:40;14.02;;;6.80;;
70169;SDS011;57543;45.442;9.212;2023-06-14T12:44:45;9.63;;;6.37;;
70169;SDS011;57543;45.442;9.212;2023-06-14T12:47:48;7.93;;;4.80;;
70169;SDS011;57543;45.442;9.212;2023-06-14T12:50:51;7.18;;;4.70;;
70169;SDS011;57543;45.442;9.212;2023-06-14T12:53:55;9.10;;;5.75;;
70169;SDS011;57543;45.442;9.212;2023-06-14T12:56:58;8.00;;;5.47;;
70169;SDS011;57543;45.442;9.212;2023-06-14T13:00:01;8.80;;;5.57;;
70169;SDS011;57543;45.442;9.212;2023-06-14T13:03:06;11.60;;;7.63;;
70169;SDS011;57543;45.442;9.212;2023-06-14T13:06:10;9.40;;;6.00;;
70169;SDS011;57543;45.442;9.212;2023-06-14T13:09:14;8.63;;;4.90;;
70169;SDS011;57543;45.442;9.212;2023-06-14T13:12:18;7.50;;;4.88;;
70169;SDS011;57543;45.442;9.212;2023-06-14T13:15:21;11.63;;;7.60;;
70169;SDS011;57543;45.442;9.212;2023-06-14T13:18:25;8.38;;;5.22;;
70169;SDS011;57543;45.442;9.212;2023-06-14T13:21:28;8.27;;;6.05;;
70169;SDS011;57543;45.442;9.212;2023-06-14T13:24:32;11.68;;;6.78;;
70169;SDS011;57543;45.442;9.212;2023-06-14T13:27:36;8.55;;;6.50;;
70169;SDS011;57543;45.442;9.212;2023-06-14T13:30:39;8.47;;;5.90;;
70169;SDS011;57543;45.442;9.212;2023-06-14T13:33:43;10.98;;;7.07;;
70169;SDS011;57543;45.442;9.212;2023-06-14T13:36:47;9.77;;;6.43;;
70169;SDS011;57543;45.442;9.212;2023-06-14T13:39:52;11.25;;;6.88;;
70169;SDS011;57543;45.442;9.212;2023-06-14T13:42:55;13.45;;;7.45;;
70169;SDS011;57543;45.442;9.212;2023-06-14T13:45:58;9.07;;;5.57;;
70169;SDS011;57543;45.442;9.212;2023-06-14T13:49:02;9.25;;;5.85;;
70169;SDS011;57543;45.442;9.212;2023-06-14T13:52:08;10.38;;;6.93;;
70169;SDS011;57543;45.442;9.212;2023-06-14T13:55:12;10.15;;;7.38;;
70169;SDS011;57543;45.442;9.212;2023-06-14T13:58:17;11.13;;;8.27;;
70169;SDS011;57543;45.442;9.212;2023-06-14T14:01:21;10.47;;;6.30;;
70169;SDS011;57543;45.442;9.212;2023-06-14T14:04:26;10.23;;;6.45;;
70169;SDS011;57543;45.442;9.212;2023-06-14T14:07:29;12.73;;;7.93;;
70169;SDS011;57543;45.442;9.212;2023-06-14T14:10:33;12.85;;;7.40;;
70169;SDS011;57543;45.442;9.212;2023-06-14T14:13:36;10.13;;;6.40;;
70169;SDS011;57543;45.442;9.212;2023-06-14T14:16:41;11.77;;;7.53;;
70169;SDS011;57543;45.442;9.212;2023-06-14T14:19:45;13.50;;;8.43;;
70169;SDS011;57543;45.442;9.212;2023-06-14T14:22:49;8.23;;;5.45;;
70169;SDS011;57543;45.442;9.212;2023-06-14T14:25:52;9.65;;;6.90;;
70169;SDS011;57543;45.442;9.212;2023-06-14T14:28:56;9.73;;;7.13;;
70169;SDS011;57543;45.442;9.212;2023-06-14T14:32:00;8.73;;;5.13;;
70169;SDS011;57543;45.442;9.212;2023-06-14T14:35:04;8.70;;;4.72;;
70169;SDS011;57543;45.442;9.212;2023-06-14T14:38:08;10.52;;;6.97;;
70169;SDS011;57543;45.442;9.212;2023-06-14T14:41:11;8.80;;;6.10;;
70169;SDS011;57543;45.442;9.212;2023-06-14T14:44:15;9.23;;;5.90;;
70169;SDS011;57543;45.442;9.212;2023-06-14T14:47:18;10.17;;;7.80;;
70169;SDS011;57543;45.442;9.212;2023-06-14T14:50:22;9.07;;;6.40;;
70169;SDS011;57543;45.442;9.212;2023-06-14T14:53:26;10.40;;;7.28;;
70169;SDS011;57543;45.442;9.212;2023-06-14T14:56:29;9.10;;;6.05;;
70169;SDS011;57543;45.442;9.212;2023-06-14T14:59:33;14.80;;;7.45;;
70169;SDS011;57543;45.442;9.212;2023-06-14T15:02:36;8.33;;;5.77;;
70169;SDS011;57543;45.442;9.212;2023-06-14T15:05:40;8.20;;;5.70;;
70169;SDS011;57543;45.442;9.212;2023-06-14T15:08:44;11.35;;;7.43;;
70169;SDS011;57543;45.442;9.212;2023-06-14T15:11:48;10.90;;;7.10;;
70169;SDS011;57543;45.442;9.212;2023-06-14T15:14:52;13.38;;;8.02;;
70169;SDS011;57543;45.442;9.212;2023-06-14T15:17:56;8.73;;;5.93;;
70169;SDS011;57543;45.442;9.212;2023-06-14T15:20:59;10.02;;;6.55;;
70169;SDS011;57543;45.442;9.212;2023-06-14T15:24:04;11.15;;;7.57;;
70169;SDS011;57543;45.442;9.212;2023-06-14T15:27:07;8.07;;;5.50;;
70169;SDS011;57543;45.442;9.212;2023-06-14T15:30:11;12.40;;;8.48;;
70169;SDS011;57543;45.442;9.212;2023-06-14T15:33:15;16.20;;;8.97;;
70169;SDS011;57543;45.442;9.212;2023-06-14T15:36:19;14.02;;;8.48;;
70169;SDS011;57543;45.442;9.212;2023-06-14T15:39:23;11.63;;;7.38;;
70169;SDS011;57543;45.442;9.212;2023-06-14T15:42:27;12.10;;;8.52;;
70169;SDS011;57543;45.442;9.212;2023-06-14T15:45:30;12.05;;;7.78;;
70169;SDS011;57543;45.442;9.212;2023-06-14T15:48:34;12.03;;;8.00;;
70169;SDS011;57543;45.442;9.212;2023-06-14T15:51:39;8.82;;;6.20;;
70169;SDS011;57543;45.442;9.212;2023-06-14T15:54:43;7.70;;;5.43;;
70169;SDS011;57543;45.442;9.212;2023-06-14T15:57:46;13.30;;;8.63;;
70169;SDS011;57543;45.442;9.212;2023-06-14T16:00:50;10.25;;;6.68;;
70169;SDS011;57543;45.442;9.212;2023-06-14T16:03:54;8.83;;;5.80;;
70169;SDS011;57543;45.442;9.212;2023-06-14T16:07:02;14.32;;;9.45;;
70169;SDS011;57543;45.442;9.212;2023-06-14T16:10:06;10.55;;;6.60;;
70169;SDS011;57543;45.442;9.212;2023-06-14T16:13:10;14.20;;;8.65;;
70169;SDS011;57543;45.442;9.212;2023-06-14T16:16:13;10.40;;;7.20;;
70169;SDS011;57543;45.442;9.212;2023-06-14T16:19:17;12.33;;;7.33;;
70169;SDS011;57543;45.442;9.212;2023-06-14T16:22:22;9.98;;;6.63;;
70169;SDS011;57543;45.442;9.212;2023-06-14T16:25:25;12.95;;;8.15;;
70169;SDS011;57543;45.442;9.212;2023-06-14T16:28:29;9.57;;;6.30;;
70169;SDS011;57543;45.442;9.212;2023-06-14T16:31:34;9.65;;;6.25;;
70169;SDS011;57543;45.442;9.212;2023-06-14T16:34:38;9.40;;;6.47;;
70169;SDS011;57543;45.442;9.212;2023-06-14T16:37:41;13.68;;;7.90;;
70169;SDS011;57543;45.442;9.212;2023-06-14T16:40:44;11.55;;;7.03;;
70169;SDS011;57543;45.442;9.212;2023-06-14T16:43:48;10.73;;;6.95;;
70169;SDS011;57543;45.442;9.212;2023-06-14T16:46:52;10.98;;;7.32;;
70169;SDS011;57543;45.442;9.212;2023-06-14T16:49:56;9.30;;;5.37;;
70169;SDS011;57543;45.442;9.212;2023-06-14T16:53:00;8.48;;;5.18;;
70169;SDS011;57543;45.442;9.212;2023-06-14T16:56:03;10.32;;;6.57;;
70169;SDS011;57543;45.442;9.212;2023-06-14T16:59:09;8.82;;;5.72;;
70169;SDS011;57543;45.442;9.212;2023-06-14T17:02:13;10.80;;;6.93;;
70169;SDS011;57543;45.442;9.212;2023-06-14T17:05:17;9.93;;;5.23;;
70169;SDS011;57543;45.442;9.212;2023-06-14T17:08:20;9.15;;;4.93;;
70169;SDS011;57543;45.442;9.212;2023-06-14T17:11:24;9.30;;;5.40;;
70169;SDS011;57543;45.442;9.212;2023-06-14T17:14:28;8.00;;;5.22;;
70169;SDS011;57543;45.442;9.212;2023-06-14T17:17:32;7.70;;;5.25;;
70169;SDS011;57543;45.442;9.212;2023-06-14T17:20:36;7.67;;;4.17;;
70169;SDS011;57543;45.442;9.212;2023-06-14T17:23:39;6.45;;;4.32;;
70169;SDS011;57543;45.442;9.212;2023-06-14T17:26:43;6.30;;;4.03;;
70169;SDS011;57543;45.442;9.212;2023-06-14T17:29:47;6.85;;;4.80;;
70169;SDS011;57543;45.442;9.212;2023-06-14T17:32:52;8.82;;;5.15;;
70169;SDS011;57543;45.442;9.212;2023-06-14T17:35:56;6.70;;;4.07;;
70169;SDS011;57543;45.442;9.212;2023-06-14T17:38:59;8.02;;;4.85;;
70169;SDS011;57543;45.442;9.212;2023-06-14T17:42:04;11.48;;;5.30;;
70169;SDS011;57543;45.442;9.212;2023-06-14T17:45:08;6.88;;;4.45;;
70169;SDS011;57543;45.442;9.212;2023-06-14T17:48:11;8.48;;;4.07;;
70169;SDS011;57543;45.442;9.212;2023-06-14T17:51:15;8.53;;;5.50;;
70169;SDS011;57543;45.442;9.212;2023-06-14T17:54:21;7.43;;;4.80;;
70169;SDS011;57543;45.442;9.212;2023-06-14T17:57:24;9.32;;;5.20;;
70169;SDS011;57543;45.442;9.212;2023-06-14T18:00:28;8.75;;;5.85;;
70169;SDS011;57543;45.442;9.212;2023-06-14T18:03:32;7.95;;;5.25;;
70169;SDS011;57543;45.442;9.212;2023-06-14T18:06:35;8.90;;;5.10;;
70169;SDS011;57543;45.442;9.212;2023-06-14T18:09:39;8.52;;;5.70;;
70169;SDS011;57543;45.442;9.212;2023-06-14T18:12:43;8.52;;;5.10;;
70169;SDS011;57543;45.442;9.212;2023-06-14T18:15:46;9.63;;;6.00;;
70169;SDS011;57543;45.442;9.212;2023-06-14T18:18:50;8.05;;;5.50;;
70169;SDS011;57543;45.442;9.212;2023-06-14T18:21:55;7.23;;;5.00;;
70169;SDS011;57543;45.442;9.212;2023-06-14T18:25:00;10.43;;;6.10;;
70169;SDS011;57543;45.442;9.212;2023-06-14T18:28:04;9.63;;;6.78;;
70169;SDS011;57543;45.442;9.212;2023-06-14T18:31:08;9.02;;;6.10;;
70169;SDS011;57543;45.442;9.212;2023-06-14T18:34:12;10.02;;;6.63;;
70169;SDS011;57543;45.442;9.212;2023-06-14T18:37:16;9.97;;;6.00;;
70169;SDS011;57543;45.442;9.212;2023-06-14T18:40:19;7.22;;;4.88;;